Time;durP1;ratioP1;P1;durP2;ratioP2;P2;SDS_P1;SDS_P2;PMS_P1;PMS_P2;Temp;Humidity;BMP_temperature;BMP_pressure;BME280_temperature;BME280_humidity;BME280_pressure;Samples;Min_cycle;Max_cycle;Signal;HPM_P1;HPM_P2
2022/08/15 00:02:48;;;;;;;5.20;4.90;;;;;;;24.89;48.97;94400.00;6226045;28;104036;-56
2022/08/15 00:05:52;;;;;;;5.40;5.00;;;;;;;24.98;48.47;94405.22;6223451;28;104170;-56
2022/08/15 00:08:58;;;;;;;4.97;4.67;;;;;;;24.93;48.74;94408.91;6227943;28;104860;-55
2022/08/15 00:12:07;;;;;;;5.03;4.63;;;;;;;24.93;48.53;94410.81;6228649;27;103753;-56
2022/08/15 00:15:31;;;;;;;5.37;4.97;;;;;;;24.29;50.36;94412.31;6225163;28;102943;-56
2022/08/15 00:18:36;;;;;;;4.97;4.67;;;;;;;24.27;50.40;94408.44;6223363;28;104120;-56
2022/08/15 00:21:43;;;;;;;5.27;4.77;;;;;;;24.16;50.50;94410.75;6235154;28;104024;-56
2022/08/15 00:24:51;;;;;;;5.07;4.57;;;;;;;24.21;50.63;94405.22;6224803;28;103558;-58
2022/08/15 00:27:57;;;;;;;5.50;5.10;;;;;;;23.99;51.15;94402.94;6235600;27;104025;-54
2022/08/15 00:31:02;;;;;;;5.40;4.90;;;;;;;24.01;50.92;94398.84;6232907;27;103191;-56
2022/08/15 00:34:06;;;;;;;5.70;5.30;;;;;;;23.83;51.18;94400.91;6210794;27;104565;-52
2022/08/15 00:37:29;;;;;;;6.10;5.60;;;;;;;24.06;50.69;94398.63;6220647;28;102774;-55
2022/08/15 00:44:21;;;;;;;6.03;5.63;;;;;;;24.35;50.04;94405.63;6234819;27;102971;-54
2022/08/15 00:48:41;;;;;;;7.17;6.40;;;;;;;24.24;49.90;94404.53;6229964;28;104459;-57
2022/08/15 00:51:13;;;;;;;6.57;6.10;;;;;;;24.35;50.00;94402.94;6234474;28;104185;-56
2022/08/15 00:54:21;;;;;;;5.90;5.50;;;;;;;24.84;48.66;94405.59;6218181;28;103319;-55
2022/08/15 00:57:48;;;;;;;6.03;5.63;;;;;;;24.76;48.59;94393.91;6205947;28;105829;-55
2022/08/15 01:01:06;;;;;;;6.40;5.90;;;;;;;24.68;48.88;94404.72;6228980;28;103308;-51
2022/08/15 01:04:13;;;;;;;6.47;6.03;;;;;;;24.80;48.63;94394.00;6225905;27;102865;-51
2022/08/15 01:07:22;;;;;;;6.87;6.37;;;;;;;24.51;49.44;94397.69;6227181;28;103042;-52
2022/08/15 01:10:26;;;;;;;6.80;6.30;;;;;;;24.65;49.12;94400.81;6227907;27;103550;-51
2022/08/15 01:13:38;;;;;;;7.20;6.63;;;;;;;24.42;49.68;94395.16;6233258;27;102978;-54
2022/08/15 01:17:04;;;;;;;7.67;7.07;;;;;;;24.49;49.17;94397.25;6228466;28;102811;-51
2022/08/15 01:20:14;;;;;;;7.10;6.50;;;;;;;24.46;49.12;94398.72;6208615;28;104451;-51
2022/08/15 01:23:36;;;;;;;7.53;6.93;;;;;;;24.41;49.43;94390.94;6232757;27;103458;-51
2022/08/15 01:26:56;;;;;;;7.83;7.33;;;;;;;24.41;49.72;94382.91;6233473;28;104013;-52
2022/08/15 01:30:03;;;;;;;7.60;7.07;;;;;;;24.67;49.11;94393.22;6209799;28;103175;-53
2022/08/15 01:33:28;;;;;;;7.60;7.00;;;;;;;24.87;48.41;94398.78;6215954;28;104804;-52
2022/08/15 01:36:33;;;;;;;6.20;5.70;;;;;;;24.87;48.60;94396.13;6219456;28;103021;-51
2022/08/15 01:39:42;;;;;;;7.10;6.43;;;;;;;24.89;48.24;94396.56;6212821;28;103545;-51
2022/08/15 01:42:50;;;;;;;5.80;5.40;;;;;;;24.89;48.21;94399.22;6220982;27;103018;-51
2022/08/15 01:45:56;;;;;;;5.93;5.10;;;;;;;24.85;48.41;94393.75;6215043;28;104164;-52
2022/08/15 01:49:06;;;;;;;5.20;4.70;;;;;;;24.60;48.86;94401.03;6222882;27;103101;-52
2022/08/15 01:52:12;;;;;;;4.97;4.50;;;;;;;24.44;48.79;94395.59;6236041;27;103229;-52
2022/08/15 01:55:42;;;;;;;4.33;3.97;;;;;;;24.25;49.44;94390.06;6230109;27;105592;-51
2022/08/15 01:59:01;;;;;;;4.30;4.00;;;;;;;24.12;49.30;94391.94;6229959;28;104276;-51
2022/08/15 02:02:08;;;;;;;4.93;4.10;;;;;;;23.98;49.76;94386.13;6230602;28;104259;-52
2022/08/15 02:05:31;;;;;;;4.30;3.90;;;;;;;23.94;49.92;94390.56;6217783;28;102902;-51
2022/08/15 02:08:34;;;;;;;4.80;4.50;;;;;;;23.71;50.03;94379.53;6227546;28;104003;-51
2022/08/15 02:11:39;;;;;;;4.40;3.93;;;;;;;23.66;50.21;94377.06;6231648;28;104119;-52
2022/08/15 02:15:07;;;;;;;3.97;3.67;;;;;;;23.72;49.98;94383.78;6234949;27;105634;-52
2022/08/15 02:18:12;;;;;;;4.20;3.80;;;;;;;23.86;49.40;94378.88;6222990;28;104229;-51
2022/08/15 02:21:23;;;;;;;4.17;3.87;;;;;;;23.96;49.17;94376.88;6227531;28;103060;-51
2022/08/15 02:24:40;;;;;;;4.33;3.93;;;;;;;24.14;48.61;94383.59;6237958;28;104193;-53
2022/08/15 02:27:43;;;;;;;3.73;3.43;;;;;;;24.09;49.03;94381.94;6212494;27;103040;-52
2022/08/15 02:30:56;;;;;;;3.93;3.73;;;;;;;24.16;48.84;94386.69;6225642;28;104059;-51
2022/08/15 02:34:01;;;;;;;4.13;3.73;;;;;;;24.33;48.52;94394.50;6234751;28;103951;-52
2022/08/15 02:37:18;;;;;;;5.23;3.73;;;;;;;24.11;48.68;94389.59;6233210;28;104286;-52
2022/08/15 02:40:26;;;;;;;4.27;3.63;;;;;;;23.96;48.72;94392.91;6212210;28;103324;-52
2022/08/15 02:43:50;;;;;;;4.07;3.77;;;;;;;23.97;49.01;94397.13;6229429;28;105293;-52
2022/08/15 02:46:56;;;;;;;3.67;3.37;;;;;;;23.78;49.17;94400.34;6227166;28;104049;-52
2022/08/15 02:50:07;;;;;;;3.97;3.57;;;;;;;23.86;49.13;94410.94;6226583;27;103919;-52
2022/08/15 02:53:13;;;;;;;4.20;3.87;;;;;;;23.83;49.08;94411.59;6223685;27;103432;-51
2022/08/15 02:56:23;;;;;;;4.30;3.90;;;;;;;23.81;48.94;94413.03;6229118;28;102978;-52
2022/08/15 02:59:32;;;;;;;7.33;6.83;;;;;;;23.72;49.50;94415.03;6229391;28;103279;-51
2022/08/15 03:02:54;;;;;;;9.37;8.57;;;;;;;23.88;48.87;94416.75;6222814;27;102928;-51
2022/08/15 03:05:58;;;;;;;8.30;7.63;;;;;;;23.88;48.91;94430.09;6227121;28;104432;-52
2022/08/15 03:09:07;;;;;;;8.43;7.73;;;;;;;23.99;49.08;94422.41;6223769;27;103040;-51
2022/08/15 03:12:13;;;;;;;23.23;21.20;;;;;;;24.14;48.66;94429.81;6232657;28;104299;-52
2022/08/15 03:15:41;;;;;;;12.73;11.63;;;;;;;24.18;48.26;94425.34;6218727;28;103087;-52
2022/08/15 03:18:46;;;;;;;12.10;11.20;;;;;;;24.23;48.23;94435.06;6225610;28;103598;-52
2022/08/15 03:21:54;;;;;;;13.07;11.90;;;;;;;24.25;48.31;94437.41;6230402;27;103226;-52
2022/08/15 03:24:59;;;;;;;14.77;13.50;;;;;;;24.29;48.31;94438.28;6220729;27;103996;-54
2022/08/15 03:28:02;;;;;;;11.17;10.27;;;;;;;24.32;48.19;94442.97;6224723;28;103992;-58
2022/08/15 03:31:25;;;;;;;14.50;9.70;;;;;;;24.43;48.48;94447.53;6227900;28;103677;-59
2022/08/15 03:34:31;;;;;;;9.77;9.07;;;;;;;24.48;48.92;94449.97;6229462;27;103059;-56
2022/08/15 03:37:34;;;;;;;11.20;10.40;;;;;;;24.56;48.17;94459.03;6223001;28;103122;-58
2022/08/15 03:40:57;;;;;;;11.33;10.37;;;;;;;24.75;47.83;94461.94;6231523;28;104337;-58
2022/08/15 03:44:04;;;;;;;11.20;10.17;;;;;;;24.92;47.57;94463.56;6224510;27;103127;-57
2022/08/15 03:47:27;;;;;;;12.27;11.37;;;;;;;25.00;47.20;94467.22;6224008;27;105441;-58
2022/08/15 03:50:34;;;;;;;11.97;11.07;;;;;;;25.16;47.01;94467.28;6224431;27;103412;-59
2022/08/15 03:53:48;;;;;;;12.43;11.43;;;;;;;25.19;46.83;94464.72;6227068;28;102891;-58
2022/08/15 03:56:52;;;;;;;12.97;11.80;;;;;;;25.24;47.10;94464.50;6224546;28;104072;-57
2022/08/15 03:59:56;;;;;;;13.40;12.40;;;;;;;25.12;46.91;94467.19;6217407;27;104021;-59
2022/08/15 04:03:08;;;;;;;13.30;12.03;;;;;;;24.91;47.44;94470.03;6233600;28;104086;-59
2022/08/15 04:06:15;;;;;;;13.37;12.27;;;;;;;24.82;47.94;94466.69;6225620;27;103886;-59
2022/08/15 04:09:29;;;;;;;13.40;12.30;;;;;;;24.68;48.12;94480.44;6215274;28;102987;-59
2022/08/15 04:12:35;;;;;;;14.00;12.90;;;;;;;24.49;48.50;94480.97;6225425;28;104373;-60
2022/08/15 04:15:47;;;;;;;12.57;11.27;;;;;;;24.19;49.15;94477.72;6217547;28;103103;-59
2022/08/15 04:19:13;;;;;;;23.00;20.83;;;;;;;23.94;49.95;94481.44;6219910;28;105660;-59
2022/08/15 04:22:31;;;;;;;11.67;10.80;;;;;;;23.74;50.10;94482.28;6219371;27;103239;-59
2022/08/15 04:25:45;;;;;;;9.87;8.80;;;;;;;23.53;50.61;94477.00;6212711;28;104227;-58
2022/08/15 04:28:56;;;;;;;9.87;8.90;;;;;;;23.54;50.49;94468.66;6223392;28;103334;-58
2022/08/15 04:32:02;;;;;;;9.10;8.20;;;;;;;23.74;49.75;94472.38;6213131;27;103492;-59
2022/08/15 04:35:08;;;;;;;9.03;8.33;;;;;;;23.71;49.51;94470.38;6224181;27;103233;-59
2022/08/15 04:38:13;;;;;;;9.33;8.17;;;;;;;24.09;49.12;94461.34;6217290;28;104293;-59
2022/08/15 04:41:19;;;;;;;10.37;9.30;;;;;;;24.42;48.34;94464.69;6222631;28;103047;-59
2022/08/15 04:44:40;;;;;;;10.27;9.47;;;;;;;24.59;47.79;94462.91;6209304;28;104021;-59
2022/08/15 04:47:46;;;;;;;8.63;7.60;;;;;;;24.26;48.30;94469.16;6235756;28;104062;-59
2022/08/15 04:50:51;;;;;;;8.77;8.07;;;;;;;23.97;48.85;94459.38;6236189;28;104153;-58
2022/08/15 04:53:56;;;;;;;8.43;7.77;;;;;;;24.00;48.63;94460.66;6236004;28;104472;-58
2022/08/15 04:57:01;;;;;;;9.40;8.60;;;;;;;23.96;48.75;94471.19;6224716;27;103021;-58
2022/08/15 05:00:06;;;;;;;9.30;8.60;;;;;;;23.87;48.87;94471.31;6236024;27;103188;-58
2022/08/15 05:03:17;;;;;;;9.77;9.07;;;;;;;23.53;49.73;94471.66;6235348;27;102958;-57
2022/08/15 05:06:25;;;;;;;13.93;10.97;;;;;;;23.41;50.28;94472.38;6228174;27;103113;-57
2022/08/15 05:09:35;;;;;;;10.20;9.30;;;;;;;23.40;50.64;94467.38;6233993;27;103655;-54
2022/08/15 05:12:58;;;;;;;10.97;9.93;;;;;;;23.51;50.28;94468.50;6234787;28;103017;-53
2022/08/15 05:16:01;;;;;;;10.90;9.80;;;;;;;23.78;50.12;94464.47;6235144;28;104490;-55
2022/08/15 05:19:05;;;;;;;12.40;11.20;;;;;;;23.78;49.63;94459.13;6224323;27;102918;-55
2022/08/15 05:22:08;;;;;;;11.00;10.20;;;;;;;24.22;49.06;94452.22;6235210;28;104167;-57
2022/08/15 05:25:13;;;;;;;10.37;9.43;;;;;;;24.46;48.60;94457.56;6235209;27;104311;-56
2022/08/15 05:28:16;;;;;;;11.83;10.83;;;;;;;24.65;48.45;94453.53;6234645;27;103080;-56
2022/08/15 05:31:33;;;;;;;13.77;12.57;;;;;;;24.87;48.13;94461.13;6229770;27;104098;-57
2022/08/15 05:34:39;;;;;;;11.93;10.87;;;;;;;24.98;47.47;94459.53;6234343;27;103046;-56
2022/08/15 05:37:46;;;;;;;12.03;10.60;;;;;;;24.94;47.99;94466.69;6234893;27;103143;-56
2022/08/15 05:41:11;;;;;;;13.80;12.70;;;;;;;24.88;47.86;94460.00;6224036;27;103122;-55
2022/08/15 05:44:20;;;;;;;54.57;50.10;;;;;;;24.84;48.53;94467.13;6235104;27;103192;-57
2022/08/15 05:47:49;;;;;;;67.03;61.60;;;;;;;24.79;48.82;94465.47;6235260;28;105665;-54
2022/08/15 05:50:56;;;;;;;109.37;100.67;;;;;;;24.78;48.38;94465.81;6222737;28;104912;-55
2022/08/15 05:54:15;;;;;;;82.50;75.60;;;;;;;24.80;49.31;94474.28;6215320;28;104005;-54
2022/08/15 05:57:29;;;;;;;89.77;82.47;;;;;;;24.83;49.08;94481.63;6234172;27;103628;-57
2022/08/15 06:00:33;;;;;;;83.33;76.30;;;;;;;24.87;49.37;94476.41;6234598;27;103172;-56
2022/08/15 06:03:39;;;;;;;98.47;90.50;;;;;;;25.02;49.83;94471.13;6214622;27;105731;-56
2022/08/15 06:06:47;;;;;;;83.07;76.10;;;;;;;25.18;49.45;94473.88;6208264;28;104246;-57
2022/08/15 06:09:55;;;;;;;87.13;79.90;;;;;;;25.38;48.84;94477.53;6207841;28;103256;-57
2022/08/15 06:13:04;;;;;;;87.90;80.90;;;;;;;25.56;48.72;94483.38;6209118;28;104207;-56
2022/08/15 06:16:16;;;;;;;83.93;77.23;;;;;;;25.69;48.15;94480.28;6198674;28;102866;-56
2022/08/15 06:19:44;;;;;;;107.87;99.57;;;;;;;25.79;48.01;94478.25;6208675;28;102787;-58
2022/08/15 06:22:58;;;;;;;97.17;89.03;;;;;;;25.84;48.84;94480.66;6209497;28;103408;-56
2022/08/15 06:26:17;;;;;;;94.30;86.70;;;;;;;25.77;48.62;94475.91;6198988;28;103448;-57
2022/08/15 06:29:42;;;;;;;89.17;81.67;;;;;;;25.69;48.99;94484.88;6212270;28;104317;-56
2022/08/15 06:32:52;;;;;;;86.53;79.70;;;;;;;25.60;48.95;94484.25;6214446;28;103165;-59
2022/08/15 06:36:07;;;;;;;83.30;76.70;;;;;;;25.40;49.57;94486.00;6238207;27;103093;-56
2022/08/15 06:39:21;;;;;;;86.27;79.03;;;;;;;25.34;50.19;94481.97;6227057;27;103766;-57
2022/08/15 06:42:34;;;;;;;71.60;65.60;;;;;;;25.24;49.71;94483.25;6237272;27;103038;-56
2022/08/15 06:45:43;;;;;;;67.40;61.87;;;;;;;25.18;49.36;94486.47;6236757;28;104109;-57
2022/08/15 06:48:52;;;;;;;64.50;58.97;;;;;;;25.13;49.61;94486.72;6226343;27;103003;-56
2022/08/15 06:52:03;;;;;;;59.27;54.37;;;;;;;25.27;49.79;94487.91;6237247;28;103273;-57
2022/08/15 06:55:13;;;;;;;54.87;49.77;;;;;;;25.45;49.23;94495.69;6236669;28;103981;-56
2022/08/15 06:58:26;;;;;;;52.70;48.30;;;;;;;25.58;48.55;94494.53;6238063;27;103238;-56
2022/08/15 07:01:59;;;;;;;52.73;48.13;;;;;;;25.70;48.21;94502.50;6229071;28;105830;-56
2022/08/15 07:05:25;;;;;;;48.33;44.27;;;;;;;25.74;48.18;94500.72;6238420;28;104347;-57
2022/08/15 07:08:42;;;;;;;46.97;42.93;;;;;;;25.79;48.10;94507.72;6237634;28;104027;-56
2022/08/15 07:11:51;;;;;;;45.37;41.57;;;;;;;25.82;48.20;94501.69;6226184;27;102953;-56
2022/08/15 07:15:04;;;;;;;42.43;38.83;;;;;;;25.81;47.72;94505.47;6237508;27;104497;-57
2022/08/15 07:18:19;;;;;;;39.47;36.17;;;;;;;25.67;48.21;94505.88;6237220;28;104059;-57
2022/08/15 07:21:25;;;;;;;36.33;33.33;;;;;;;25.48;48.54;94495.78;6237383;27;103300;-57
2022/08/15 07:24:51;;;;;;;37.97;34.87;;;;;;;25.37;48.42;94497.38;6226020;28;102821;-55
2022/08/15 07:28:01;;;;;;;36.37;33.13;;;;;;;25.28;48.87;94500.19;6237700;28;103702;-56
2022/08/15 07:31:12;;;;;;;34.40;31.50;;;;;;;25.20;48.80;94497.63;6237331;28;104277;-56
2022/08/15 07:34:23;;;;;;;33.90;31.10;;;;;;;25.11;48.95;94494.31;6226557;27;103252;-57
2022/08/15 07:37:33;;;;;;;33.73;30.93;;;;;;;25.02;49.14;94503.25;6237249;27;103236;-56
2022/08/15 07:40:43;;;;;;;33.40;30.53;;;;;;;24.98;49.14;94506.94;6236067;27;103395;-57
2022/08/15 07:44:00;;;;;;;30.80;28.37;;;;;;;24.97;49.23;94503.47;6236656;27;103625;-57
2022/08/15 07:47:26;;;;;;;28.87;26.47;;;;;;;24.92;49.17;94498.38;6225648;28;102995;-57
2022/08/15 07:50:41;;;;;;;28.97;26.47;;;;;;;24.94;48.90;94504.16;6237254;27;103054;-56
2022/08/15 07:53:54;;;;;;;29.93;27.57;;;;;;;25.09;48.84;94514.19;6221465;27;102943;-57
2022/08/15 07:57:00;;;;;;;28.97;26.57;;;;;;;25.34;48.48;94514.09;6222222;28;103104;-57
2022/08/15 08:00:15;;;;;;;28.70;26.40;;;;;;;25.54;47.98;94517.75;6235974;28;103055;-57
2022/08/15 08:03:39;;;;;;;28.27;25.73;;;;;;;25.70;47.46;94518.59;6220399;27;103034;-57
2022/08/15 08:06:56;;;;;;;28.50;26.10;;;;;;;25.82;47.18;94518.53;6208466;28;103271;-55
2022/08/15 08:10:04;;;;;;;27.10;24.90;;;;;;;25.95;46.83;94525.41;6200362;28;104024;-58
2022/08/15 08:13:40;;;;;;;25.03;23.03;;;;;;;26.08;46.52;94515.44;6211325;28;103993;-56
2022/08/15 08:16:53;;;;;;;27.20;24.60;;;;;;;26.19;47.18;94513.00;6210819;28;104283;-57
2022/08/15 08:20:13;;;;;;;25.97;23.77;;;;;;;26.22;47.29;94505.06;6199786;28;103022;-56
2022/08/15 08:23:26;;;;;;;26.00;23.90;;;;;;;26.30;46.43;94522.13;6211756;28;103693;-57
2022/08/15 08:26:34;;;;;;;24.43;22.63;;;;;;;26.33;46.11;94517.97;6210820;28;102916;-56
2022/08/15 08:29:45;;;;;;;25.53;23.43;;;;;;;26.35;47.00;94515.72;6210886;28;103840;-57
2022/08/15 08:32:58;;;;;;;24.07;22.00;;;;;;;26.35;46.30;94515.72;6199950;28;103044;-56
2022/08/15 08:36:09;;;;;;;25.00;22.97;;;;;;;26.35;45.99;94516.47;6211178;28;103999;-57
2022/08/15 08:39:44;;;;;;;25.33;23.30;;;;;;;26.35;46.61;94519.16;6231069;28;104943;-58
2022/08/15 08:43:00;;;;;;;23.43;21.73;;;;;;;26.14;46.84;94514.06;6225773;27;103312;-57
2022/08/15 08:46:20;;;;;;;26.03;24.00;;;;;;;25.95;47.80;94503.19;6235650;28;104329;-56
2022/08/15 08:49:41;;;;;;;24.93;22.93;;;;;;;25.79;47.57;94508.50;6235899;28;104055;-55
2022/08/15 08:53:17;;;;;;;23.40;21.60;;;;;;;25.66;47.84;94507.78;6221120;28;105369;-57
2022/08/15 08:56:38;;;;;;;22.80;20.80;;;;;;;25.54;47.86;94494.44;6206763;28;103970;-54
2022/08/15 08:59:50;;;;;;;22.00;20.30;;;;;;;25.34;47.54;94488.09;6210768;28;103186;-53
2022/08/15 09:03:07;;;;;;;23.70;21.40;;;;;;;25.48;48.16;94482.41;6210860;28;103345;-56
2022/08/15 09:06:13;;;;;;;22.27;20.57;;;;;;;25.58;47.31;94481.94;6199802;28;105333;-56
2022/08/15 09:09:34;;;;;;;21.80;20.10;;;;;;;25.81;47.45;94484.03;6219107;28;103309;-56
2022/08/15 09:16:14;;;;;;;23.00;20.67;;;;;;;26.10;46.20;94477.53;6229580;27;102976;-58
2022/08/15 09:19:25;;;;;;;23.53;21.63;;;;;;;26.13;46.51;94482.22;6231734;27;103018;-56
2022/08/15 09:22:33;;;;;;;23.30;21.37;;;;;;;26.19;46.02;94470.88;6236226;28;103072;-55
2022/08/15 09:25:43;;;;;;;22.90;20.70;;;;;;;26.20;46.29;94472.44;6235356;27;104036;-56
2022/08/15 09:29:07;;;;;;;23.30;21.40;;;;;;;26.26;46.13;94467.59;6202634;27;103350;-57
2022/08/15 09:32:41;;;;;;;22.53;20.70;;;;;;;26.24;45.67;94476.00;6209827;28;104195;-57
2022/08/15 09:35:57;;;;;;;22.77;20.97;;;;;;;26.09;46.02;94476.00;6210677;28;103178;-58
2022/08/15 09:39:16;;;;;;;22.33;20.67;;;;;;;25.93;46.00;94470.56;6202539;28;103065;-60
2022/08/15 09:42:39;;;;;;;23.03;21.00;;;;;;;25.78;46.39;94474.78;6209790;28;103288;-57
2022/08/15 09:46:29;;;;;;;23.40;21.30;;;;;;;25.64;46.85;94467.16;6212090;28;103055;-57
2022/08/15 09:50:17;;;;;;;22.63;20.73;;;;;;;25.56;47.03;94478.03;6231614;28;104321;-60
2022/08/15 09:53:55;;;;;;;21.40;19.80;;;;;;;25.53;47.24;94476.00;6220446;27;103125;-57
2022/08/15 09:57:24;;;;;;;22.13;20.43;;;;;;;25.55;47.42;94476.47;6210329;28;102964;-56
2022/08/15 10:00:34;;;;;;;22.03;20.30;;;;;;;25.68;46.93;94465.34;6209648;28;104156;-57
2022/08/15 10:04:00;;;;;;;22.13;20.33;;;;;;;25.82;46.87;94464.94;6204320;28;104307;-56
2022/08/15 10:07:45;;;;;;;21.20;19.60;;;;;;;25.95;46.11;94468.31;6213841;28;102979;-56
2022/08/15 10:10:55;;;;;;;19.87;18.40;;;;;;;26.05;46.15;94462.50;6164911;28;103288;-54
2022/08/15 10:14:05;;;;;;;20.17;18.57;;;;;;;26.10;45.78;94458.78;6203786;28;103069;-56
2022/08/15 10:17:27;;;;;;;22.37;20.57;;;;;;;26.13;46.30;94464.22;6213541;28;103021;-56
2022/08/15 10:21:17;;;;;;;18.93;17.43;;;;;;;26.20;45.51;94450.97;6214311;28;103101;-57
2022/08/15 10:24:27;;;;;;;20.90;19.30;;;;;;;26.12;45.74;94445.78;6207252;28;103108;-57
2022/08/15 10:27:56;;;;;;;20.77;19.20;;;;;;;25.95;46.39;94447.66;6213300;28;103702;-55
2022/08/15 10:31:26;;;;;;;20.40;18.90;;;;;;;25.76;46.98;94447.56;6213680;28;104073;-57
2022/08/15 10:34:59;;;;;;;19.70;18.30;;;;;;;25.64;46.87;94442.25;6217876;28;103008;-59
2022/08/15 10:38:09;;;;;;;19.93;18.33;;;;;;;25.62;47.23;94445.28;6221330;27;104131;-57
2022/08/15 10:41:44;;;;;;;20.70;19.13;;;;;;;25.53;47.64;94446.53;6217127;28;103051;-56
2022/08/15 10:44:56;;;;;;;20.50;18.93;;;;;;;25.48;47.53;94444.88;6217919;28;104377;-57
2022/08/15 10:48:14;;;;;;;20.77;18.90;;;;;;;25.49;47.17;94451.81;6220888;28;103133;-55
2022/08/15 10:51:53;;;;;;;19.47;17.97;;;;;;;25.71;46.94;94436.28;6236438;28;102846;-59
2022/08/15 10:55:19;;;;;;;18.30;16.90;;;;;;;25.88;46.43;94434.09;6230952;28;103021;-56
2022/08/15 10:58:43;;;;;;;18.80;17.10;;;;;;;26.03;45.66;94437.91;6214524;28;105418;-55
2022/08/15 11:01:51;;;;;;;18.60;17.20;;;;;;;26.11;45.23;94436.97;6224719;28;102992;-57
2022/08/15 11:05:00;;;;;;;15.10;13.90;;;;;;;26.10;44.54;94437.31;6229886;28;104625;-50
2022/08/15 11:08:04;;;;;;;18.00;16.40;;;;;;;26.22;44.78;94432.66;6237472;28;104150;-55
2022/08/15 11:11:11;;;;;;;16.63;15.23;;;;;;;26.23;45.48;94428.84;6227209;28;103515;-57
2022/08/15 11:14:28;;;;;;;16.93;15.50;;;;;;;26.22;45.28;94429.97;6213737;28;104112;-57
2022/08/15 11:17:35;;;;;;;18.40;16.70;;;;;;;26.11;45.94;94422.78;6234424;28;103102;-57
2022/08/15 11:20:52;;;;;;;18.20;16.30;;;;;;;26.01;46.29;94424.06;6223493;28;104592;-56
2022/08/15 11:23:58;;;;;;;18.60;16.90;;;;;;;25.91;46.30;94425.34;6225061;28;102991;-56
2022/08/15 11:27:13;;;;;;;18.13;16.40;;;;;;;25.84;45.72;94414.44;6235113;28;102895;-56
2022/08/15 11:30:29;;;;;;;17.17;15.80;;;;;;;25.78;46.79;94407.78;6217616;27;103090;-58
2022/08/15 11:33:41;;;;;;;16.20;14.90;;;;;;;25.72;46.16;94409.16;6225142;28;103032;-58
2022/08/15 11:36:44;;;;;;;16.30;15.03;;;;;;;25.73;46.63;94404.59;6221434;27;103373;-56
2022/08/15 11:39:54;;;;;;;17.30;15.80;;;;;;;25.77;47.06;94413.50;6224236;27;103100;-56
2022/08/15 11:43:04;;;;;;;17.50;15.90;;;;;;;25.93;46.11;94412.38;6213898;28;104003;-57
2022/08/15 11:46:13;;;;;;;19.30;17.90;;;;;;;26.10;46.27;94405.13;6202995;28;102998;-56
2022/08/15 11:49:35;;;;;;;19.20;17.60;;;;;;;26.20;45.79;94410.75;6228166;28;104280;-57
2022/08/15 11:52:50;;;;;;;19.33;17.80;;;;;;;26.27;46.42;94413.59;6225988;27;103327;-54
2022/08/15 11:55:53;;;;;;;18.00;16.60;;;;;;;26.32;45.99;94407.19;6208226;28;103754;-53
2022/08/15 11:58:58;;;;;;;18.40;16.77;;;;;;;26.35;46.33;94408.41;6214050;28;103503;-54
2022/08/15 12:02:15;;;;;;;18.77;16.77;;;;;;;26.35;46.53;94413.75;6235686;27;102991;-54
2022/08/15 12:05:39;;;;;;;17.87;16.37;;;;;;;26.26;46.49;94411.28;6234022;28;104960;-54
2022/08/15 12:09:09;;;;;;;17.00;15.53;;;;;;;26.17;47.27;94410.66;6227052;28;103105;-53
2022/08/15 12:12:24;;;;;;;18.03;16.13;;;;;;;26.09;47.26;94404.38;6235317;27;102968;-53
2022/08/15 12:15:42;;;;;;;16.90;15.33;;;;;;;26.02;47.74;94401.50;6223169;28;104054;-53
2022/08/15 12:18:49;;;;;;;17.00;15.50;;;;;;;26.00;47.68;94398.38;6217616;27;103039;-53
2022/08/15 12:21:59;;;;;;;18.77;17.17;;;;;;;26.04;48.15;94395.78;6218085;28;103055;-53
2022/08/15 12:25:23;;;;;;;20.03;17.83;;;;;;;26.03;47.85;94391.53;6210676;28;104852;-53
2022/08/15 12:28:47;;;;;;;19.60;17.80;;;;;;;26.07;48.53;94382.47;6207690;28;102660;-53
2022/08/15 12:32:01;;;;;;;19.87;18.10;;;;;;;26.19;48.54;94385.03;6212063;28;104007;-52
2022/08/15 12:35:25;;;;;;;18.63;17.10;;;;;;;26.31;48.29;94380.72;6232430;28;102787;-52
2022/08/15 12:38:48;;;;;;;18.57;16.77;;;;;;;26.38;47.68;94391.59;6225428;28;105337;-50
2022/08/15 12:41:54;;;;;;;18.30;16.57;;;;;;;26.41;47.14;94380.19;6221523;27;104533;-51
2022/08/15 12:45:18;;;;;;;16.83;15.40;;;;;;;26.49;47.28;94389.94;6218849;28;103277;-52
2022/08/15 12:48:26;;;;;;;15.60;14.33;;;;;;;26.46;47.38;94358.44;6234291;28;104000;-52
2022/08/15 12:51:38;;;;;;;17.30;15.90;;;;;;;26.42;46.69;94377.16;6213738;27;103844;-54
2022/08/15 12:54:47;;;;;;;16.00;14.70;;;;;;;26.33;46.87;94368.50;6230999;28;104075;-52
2022/08/15 12:57:51;;;;;;;16.27;14.97;;;;;;;26.27;47.42;94373.38;6215789;27;103020;-54
2022/08/15 13:00:57;;;;;;;16.20;14.80;;;;;;;26.27;47.29;94376.06;6229409;28;103988;-52
2022/08/15 13:04:17;;;;;;;16.47;15.07;;;;;;;26.25;46.84;94369.47;6206962;28;103091;-51
2022/08/15 13:07:40;;;;;;;16.17;14.93;;;;;;;26.20;46.97;94367.81;6226207;28;105834;-52
2022/08/15 13:11:04;;;;;;;16.43;15.13;;;;;;;26.17;47.13;94378.47;6227969;27;105247;-53
2022/08/15 13:14:14;;;;;;;14.73;13.60;;;;;;;26.17;47.46;94371.22;6209908;28;104629;-55
2022/08/15 13:17:18;;;;;;;16.60;15.23;;;;;;;26.26;47.46;94360.31;6215201;28;103300;-56
2022/08/15 13:24:09;;;;;;;15.47;14.27;;;;;;;26.50;46.63;94360.06;6215843;28;102984;-53
2022/08/15 13:27:19;;;;;;;14.60;13.50;;;;;;;26.60;46.12;94360.66;6216920;27;103364;-53
2022/08/15 13:30:23;;;;;;;14.53;13.20;;;;;;;26.57;45.82;94359.47;6232140;27;104307;-52
2022/08/15 13:33:42;;;;;;;13.53;12.43;;;;;;;26.59;45.17;94359.88;6218328;28;104047;-52
2022/08/15 13:36:50;;;;;;;14.23;13.07;;;;;;;26.49;45.66;94358.50;6230515;27;103337;-53
2022/08/15 13:39:58;;;;;;;13.13;11.87;;;;;;;26.56;45.17;94363.28;6219202;27;103239;-54
2022/08/15 13:43:02;;;;;;;14.10;12.83;;;;;;;26.47;45.76;94365.38;6211156;28;103681;-54
2022/08/15 13:46:16;;;;;;;14.40;13.00;;;;;;;26.41;46.37;94366.78;6222246;28;104043;-53
2022/08/15 13:49:39;;;;;;;13.43;12.43;;;;;;;26.39;46.50;94371.72;6203446;28;104124;-53
2022/08/15 13:52:44;;;;;;;13.90;12.43;;;;;;;26.36;46.43;94364.34;6209541;28;103953;-52
2022/08/15 13:55:53;;;;;;;14.30;13.20;;;;;;;26.31;46.62;94361.94;6222087;28;104083;-53
2022/08/15 13:58:57;;;;;;;13.17;12.07;;;;;;;26.26;46.41;94358.41;6220235;28;103675;-53
2022/08/15 14:02:02;;;;;;;15.83;11.23;;;;;;;26.22;46.94;94354.88;6205537;27;104070;-53
2022/08/15 14:05:26;;;;;;;13.00;11.90;;;;;;;26.30;46.44;94361.16;6232866;27;105259;-53
2022/08/15 14:08:38;;;;;;;12.50;11.50;;;;;;;26.46;46.13;94359.22;6229706;27;103306;-53
2022/08/15 14:12:01;;;;;;;13.97;12.67;;;;;;;26.53;46.49;94364.72;6208864;28;104868;-53
2022/08/15 14:15:06;;;;;;;13.00;11.67;;;;;;;26.62;46.05;94367.22;6224005;27;103417;-52
2022/08/15 14:18:10;;;;;;;12.57;11.53;;;;;;;26.72;46.16;94355.97;6220542;28;104405;-53
2022/08/15 14:21:33;;;;;;;14.47;12.97;;;;;;;26.81;45.76;94367.28;6227854;28;105004;-54
2022/08/15 14:24:37;;;;;;;12.90;11.50;;;;;;;26.77;45.86;94363.75;6214301;28;103128;-54
2022/08/15 14:28:01;;;;;;;13.53;12.37;;;;;;;26.68;45.72;94365.84;6228044;28;104226;-53
2022/08/15 14:31:04;;;;;;;13.60;12.27;;;;;;;26.55;46.48;94367.09;6224111;28;103481;-56
2022/08/15 14:34:23;;;;;;;12.80;11.60;;;;;;;26.48;46.93;94372.28;6214552;28;103387;-56
2022/08/15 14:37:48;;;;;;;12.80;11.70;;;;;;;26.49;47.15;94368.47;6217298;28;103138;-56
2022/08/15 14:44:12;;;;;;;13.27;12.27;;;;;;;26.42;47.22;94368.31;6157120;23;104468;-56
2022/08/15 14:47:35;;;;;;;13.10;12.00;;;;;;;26.37;47.41;94369.34;6174607;28;104262;-56
2022/08/15 14:50:41;;;;;;;13.97;12.37;;;;;;;26.37;47.12;94371.25;6178024;28;103791;-56
2022/08/15 14:54:07;;;;;;;13.60;12.50;;;;;;;26.38;47.08;94373.63;6180301;28;103668;-56
2022/08/15 14:57:30;;;;;;;12.50;11.57;;;;;;;26.55;46.70;94367.09;6170301;28;103316;-56
2022/08/15 15:00:56;;;;;;;13.90;12.70;;;;;;;26.69;47.06;94367.41;6173104;28;104510;-56
2022/08/15 15:04:19;;;;;;;15.60;12.37;;;;;;;26.74;46.11;94366.38;6171718;28;105934;-55